Archiv-/Tagesdaten

--Timestamp---	Temp	Chill	HIndex	Humid	Dewpt	Wind	HiWind	WindDir	Rain	Barom	Solar	ET	UV
--------------	----	-----	------	-----	-----	----	------	-------	----	-----	-----	--	--
20080505 00:05	8.7	8.7	8.7	74	4.3	0	0	135	0.00	1022.658	0	0.000	0
20080505 00:10	8.4	8.4	8.4	75	4.3	0	2	135	0.00	1022.726	0	0.000	0
20080505 00:15	8.3	8.3	8.3	76	4.3	0	2	135	0.00	1022.760	0	0.000	0
20080505 00:20	8.2	8.2	8.2	76	4.2	2	3	135	0.00	1022.760	0	0.000	0
20080505 00:25	8.0	8.0	8.0	76	4.0	0	3	135	0.00	1022.794	0	0.000	0
20080505 00:30	7.9	7.9	7.9	77	4.1	0	2	135	0.00	1022.895	0	0.000	0
20080505 00:35	7.8	7.8	7.8	78	4.2	0	0	135	0.00	1022.862	0	0.000	0
20080505 00:40	7.6	7.6	7.6	78	4.0	0	2	135	0.00	1022.862	0	0.000	0
20080505 00:45	7.3	7.3	7.3	79	3.9	0	0	135	0.00	1023.031	0	0.000	0
20080505 00:50	7.1	7.1	7.1	79	3.7	0	0	135	0.00	1023.065	0	0.000	0
20080505 00:55	6.9	6.9	6.9	80	3.7	0	0	135	0.00	1023.031	0	0.000	0
20080505 01:00	6.8	6.8	6.8	81	3.7	0	0	135	0.00	1023.031	0	0.020	0
20080505 01:05	6.7	6.7	6.7	81	3.6	0	0	135	0.00	1022.895	0	0.000	0
20080505 01:10	6.6	6.6	6.6	81	3.5	0	0	135	0.00	1022.862	0	0.000	0
20080505 01:15	6.4	6.4	6.4	82	3.6	0	0	135	0.00	1022.828	0	0.000	0
20080505 01:20	6.3	6.3	6.3	83	3.7	0	0	135	0.00	1022.929	0	0.000	0
20080505 01:25	6.3	6.3	6.3	83	3.6	0	0	135	0.00	1022.895	0	0.000	0
20080505 01:30	6.2	6.2	6.2	83	3.5	0	0	135	0.00	1022.963	0	0.000	0
20080505 01:35	6.1	6.1	6.1	83	3.4	0	0	135	0.00	1022.929	0	0.000	0
20080505 01:40	6.1	6.1	6.1	84	3.6	0	0	135	0.00	1022.929	0	0.000	0
20080505 01:45	6.0	6.0	6.0	84	3.5	0	2	135	0.00	1022.929	0	0.000	0
20080505 01:50	5.9	5.9	5.9	84	3.4	0	3	135	0.00	1022.963	0	0.000	0
20080505 01:55	5.9	5.9	5.9	84	3.4	0	2	135	0.00	1022.929	0	0.000	0
20080505 02:00	5.9	5.9	5.9	85	3.6	2	5	135	0.00	1023.031	0	0.000	0
20080505 02:05	6.0	6.0	6.0	85	3.7	2	5	135	0.00	1022.929	0	0.000	0
20080505 02:10	6.1	6.1	6.1	85	3.7	0	0	135	0.00	1022.929	0	0.000	0
20080505 02:15	6.1	6.1	6.1	84	3.6	0	0	135	0.00	1022.828	0	0.000	0
20080505 02:20	6.0	6.0	6.0	85	3.7	0	2	135	0.00	1022.862	0	0.000	0
20080505 02:25	6.0	6.0	6.0	85	3.7	0	0	135	0.00	1022.760	0	0.000	0
20080505 02:30	5.9	5.9	5.9	85	3.6	0	2	135	0.00	1022.828	0	0.000	0
20080505 02:35	5.9	5.9	5.9	85	3.6	0	2	135	0.00	1022.828	0	0.000	0
20080505 02:40	5.9	5.9	5.9	85	3.6	0	0	135	0.00	1022.828	0	0.000	0
20080505 02:45	5.8	5.8	5.8	85	3.5	0	2	135	0.00	1022.862	0	0.000	0
20080505 02:50	5.7	5.7	5.7	85	3.4	0	0	135	0.00	1022.828	0	0.000	0
20080505 02:55	5.7	5.7	5.7	85	3.4	0	0	135	0.00	1022.862	0	0.000	0
20080505 03:00	5.7	5.7	5.7	85	3.4	0	0	135	0.00	1022.828	0	0.000	0
20080505 03:05	5.7	5.7	5.7	85	3.3	0	0	135	0.00	1022.895	0	0.000	0
20080505 03:10	5.6	5.6	5.6	85	3.3	0	0	135	0.00	1023.031	0	0.000	0
20080505 03:15	5.5	5.5	5.5	85	3.2	0	0	135	0.00	1022.997	0	0.000	0
20080505 03:20	5.4	5.4	5.4	85	3.1	0	0	135	0.00	1022.895	0	0.000	0
20080505 03:25	5.3	5.3	5.3	85	3.0	0	0	135	0.00	1022.929	0	0.000	0
20080505 03:30	5.2	5.2	5.2	85	2.9	0	0	135	0.00	1022.929	0	0.000	0
20080505 03:35	5.1	5.1	5.1	86	2.9	0	2	135	0.00	1022.997	0	0.000	0
20080505 03:40	5.0	5.0	5.0	86	2.9	0	0	135	0.00	1022.929	0	0.000	0
20080505 03:45	4.9	4.9	4.9	86	2.7	0	0	135	0.00	1022.963	0	0.000	0
20080505 03:50	4.8	4.8	4.8	87	2.9	0	5	135	0.00	1023.031	0	0.000	0
20080505 03:55	4.8	4.8	4.8	87	2.8	2	5	135	0.00	1023.031	0	0.000	0
20080505 04:00	4.8	4.8	4.8	88	3.0	2	5	135	0.00	1023.065	0	0.000	0
20080505 04:05	4.8	4.8	4.8	88	3.0	0	2	135	0.00	1023.031	0	0.000	0
20080505 04:10	4.9	4.9	4.9	88	3.1	0	0	135	0.00	1023.099	0	0.000	0
20080505 04:15	4.9	4.9	4.9	88	3.1	0	0	135	0.00	1023.099	0	0.000	0
20080505 04:20	4.9	4.9	4.9	88	3.1	0	0	135	0.00	1023.099	0	0.000	0
20080505 04:25	4.8	4.8	4.8	88	3.0	0	0	135	0.00	1023.065	0	0.000	0
20080505 04:30	4.7	4.7	4.7	88	2.9	0	0	135	0.00	1023.031	0	0.000	0
20080505 04:35	4.6	4.6	4.6	88	2.8	0	0	135	0.00	1023.031	0	0.000	0
20080505 04:40	4.7	4.7	4.7	89	3.0	0	0	135	0.00	1022.997	0	0.000	0
20080505 04:45	4.7	4.7	4.7	88	2.9	0	2	135	0.00	1022.929	0	0.000	0
20080505 04:50	4.7	4.7	4.7	88	2.9	0	0	135	0.00	1022.929	0	0.000	0
20080505 04:55	4.7	4.7	4.7	88	2.9	0	0	135	0.00	1022.963	0	0.000	0
20080505 05:00	4.6	4.6	4.6	87	2.6	0	0	135	0.00	1022.997	0	0.000	0
20080505 05:05	4.5	4.5	4.5	88	2.7	0	0	135	0.00	1023.065	0	0.000	0
20080505 05:10	4.4	4.4	4.4	88	2.6	0	0	135	0.00	1023.099	0	0.000	0
20080505 05:15	4.3	4.3	4.3	88	2.5	0	0	135	0.00	1023.099	0	0.000	0
20080505 05:20	4.2	4.2	4.2	88	2.4	0	0	135	0.00	1023.132	0	0.000	0
20080505 05:25	4.2	4.2	4.2	88	2.4	0	0	135	0.00	1023.166	0	0.000	0
20080505 05:30	4.2	4.2	4.2	88	2.4	0	0	135	0.00	1023.200	0	0.000	0
20080505 05:35	4.2	4.2	4.2	88	2.4	0	0	135	0.00	1023.268	0	0.000	0
20080505 05:40	4.1	4.1	4.1	88	2.2	0	0	135	0.00	1023.437	0	0.000	0
20080505 05:45	4.0	4.0	4.0	88	2.2	0	0	135	0.00	1023.471	0	0.000	0
20080505 05:50	3.9	3.9	3.9	88	2.1	0	0	135	0.00	1023.505	0	0.000	0
20080505 05:55	3.9	3.9	3.9	88	2.1	0	0	135	0.00	1023.505	4	0.000	0
20080505 06:00	3.8	3.8	3.8	88	2.0	0	0	135	0.00	1023.505	7	0.000	0
20080505 06:05	3.8	3.8	3.8	88	2.0	0	0	135	0.00	1023.539	10	0.000	0
20080505 06:10	3.7	3.7	3.7	88	1.9	0	0	135	0.00	1023.539	13	0.000	0
20080505 06:15	3.7	3.7	3.7	89	2.0	0	0	135	0.00	1023.573	15	0.000	0
20080505 06:20	3.7	3.7	3.7	89	2.0	0	0	135	0.00	1023.573	18	0.000	0
20080505 06:25	3.7	3.7	3.7	89	2.0	0	0	135	0.00	1023.539	21	0.000	0
20080505 06:30	3.7	3.7	3.7	90	2.2	0	0	135	0.00	1023.573	25	0.000	0
20080505 06:35	3.8	3.8	3.8	90	2.3	0	0	135	0.00	1023.640	27	0.000	0
20080505 06:40	3.9	3.9	3.9	90	2.5	0	0	135	0.00	1023.640	29	0.000	0
20080505 06:45	4.1	4.1	4.1	90	2.6	0	0	135	0.00	1023.674	32	0.000	0
20080505 06:50	4.2	4.2	4.2	90	2.7	0	0	135	0.00	1023.708	34	0.000	0
20080505 06:55	4.3	4.3	4.3	90	2.8	0	0	135	0.00	1023.844	36	0.000	0
20080505 07:00	4.4	4.4	4.4	89	2.7	0	0	135	0.00	1023.878	39	0.000	0
20080505 07:05	4.4	4.4	4.4	89	2.8	0	0	135	0.00	1023.979	41	0.000	0
20080505 07:10	4.6	4.6	4.6	89	2.9	0	0	135	0.00	1024.013	43	0.000	0
20080505 07:15	4.7	4.7	4.7	89	3.1	0	0	135	0.00	1024.115	106	0.000	0
20080505 07:20	5.1	5.1	5.1	89	3.4	2	5	112	0.00	1024.148	159	0.000	0
20080505 07:25	5.4	5.4	5.4	88	3.6	2	5	135	0.00	1024.013	172	0.000	0
20080505 07:30	5.7	5.7	5.7	87	3.7	3	6	157	0.00	1023.979	187	0.000	0
20080505 07:35	6.0	6.0	6.0	86	3.8	2	3	157	0.00	1023.979	201	0.000	0
20080505 07:40	6.3	6.3	6.3	85	3.9	2	5	157	0.00	1024.013	216	0.000	0
20080505 07:45	6.6	6.6	6.6	83	3.9	0	3	157	0.00	1023.911	229	0.000	0
20080505 07:50	6.8	6.8	6.8	82	3.9	0	5	157	0.00	1023.945	242	0.000	0
20080505 07:55	7.1	7.1	7.1	82	4.2	0	3	157	0.00	1023.911	257	0.000	1
20080505 08:00	7.4	7.4	7.4	80	4.2	0	3	157	0.00	1023.911	270	0.060	1
20080505 08:05	8.1	8.1	8.1	77	4.3	2	5	135	0.00	1024.115	283	0.000	1
20080505 08:10	8.6	8.6	8.6	75	4.4	0	3	135	0.00	1023.979	296	0.000	1
20080505 08:15	8.8	8.8	8.8	74	4.4	0	3	135	0.00	1024.013	309	0.000	1
20080505 08:20	8.9	8.9	8.9	75	4.8	0	2	135	0.00	1024.081	321	0.000	1
20080505 08:25	9.3	9.3	9.3	75	5.1	0	2	135	0.00	1023.945	334	0.000	1
20080505 08:30	9.7	9.7	9.7	73	5.1	0	5	135	0.00	1023.979	347	0.000	1
20080505 08:35	9.9	9.9	9.9	72	5.1	2	5	135	0.00	1024.081	362	0.000	1
20080505 08:40	10.0	10.0	10.0	71	5.0	2	5	135	0.00	1024.115	374	0.000	1
20080505 08:45	10.2	10.2	10.2	72	5.3	3	6	135	0.00	1024.081	389	0.000	1
20080505 08:50	10.3	10.3	10.3	71	5.3	2	6	135	0.00	1024.047	403	0.000	1
20080505 08:55	10.4	10.4	10.4	70	5.2	2	6	135	0.00	1023.945	417	0.000	1
20080505 09:00	10.5	10.5	10.5	69	5.1	3	6	135	0.00	1023.979	431	0.140	1
20080505 09:05	10.6	10.6	10.6	70	5.4	2	5	135	0.00	1024.250	444	0.000	2
20080505 09:10	10.7	10.7	10.7	68	5.0	0	3	135	0.00	1024.284	454	0.000	2
20080505 09:15	11.1	11.1	11.1	68	5.4	3	8	135	0.00	1024.216	466	0.000	2
20080505 09:20	11.2	11.2	11.2	67	5.3	3	8	67	0.00	1024.318	480	0.000	2
20080505 09:25	11.3	11.3	11.3	67	5.4	3	8	135	0.00	1024.318	276	0.000	2
20080505 09:30	11.6	11.6	11.6	67	5.7	2	6	135	0.00	1024.352	505	0.000	2
20080505 09:35	11.7	11.7	11.7	64	5.1	3	8	45	0.00	1024.419	520	0.000	2
20080505 09:40	11.6	11.6	11.6	65	5.3	3	8	135	0.00	1024.453	524	0.000	2
20080505 09:45	11.5	11.5	11.5	66	5.4	3	8	67	0.00	1024.453	77	0.000	2
20080505 09:50	11.4	11.4	11.4	68	5.7	3	6	22	0.00	1024.487	75	0.000	2
20080505 09:55	11.4	11.4	11.4	66	5.3	3	6	67	0.00	1024.487	74	0.000	2
20080505 10:00	11.5	11.5	11.5	65	5.1	3	8	90	0.00	1024.521	75	0.140	2
20080505 10:05	11.8	11.8	11.8	66	5.6	5	10	135	0.00	1024.656	103	0.000	2
20080505 10:10	11.9	11.9	11.9	65	5.6	3	6	67	0.00	1024.589	599	0.000	2
20080505 10:15	11.9	11.9	11.9	63	5.1	5	8	67	0.00	1024.623	610	0.000	3
20080505 10:20	12.1	12.1	12.1	64	5.5	3	8	22	0.00	1024.656	638	0.000	3
20080505 10:25	12.2	12.2	12.2	65	5.8	3	10	67	0.00	1024.724	257	0.000	2
20080505 10:30	12.2	12.2	12.2	62	5.2	6	14	22	0.00	1024.758	305	0.000	2
20080505 10:35	11.9	11.9	11.9	63	5.1	6	14	22	0.00	1024.792	116	0.000	2
20080505 10:40	12.0	12.0	12.0	63	5.2	5	10	22	0.00	1024.826	428	0.000	3
20080505 10:45	12.2	12.2	12.2	56	3.6	6	14	22	0.00	1024.826	552	0.000	3
20080505 10:50	12.6	12.6	12.6	54	3.5	6	13	67	0.00	1024.893	713	0.000	4
20080505 10:55	12.8	12.8	12.8	56	4.3	6	11	45	0.00	1024.859	585	0.000	3
20080505 11:00	12.7	12.7	12.7	55	3.9	6	16	45	0.00	1024.826	608	0.180	4
20080505 11:05	12.8	12.8	12.8	55	4.0	8	19	67	0.00	1024.995	729	0.000	4
20080505 11:10	12.9	12.9	12.9	53	3.6	10	23	67	0.00	1024.995	750	0.000	4
20080505 11:15	13.1	13.1	13.1	54	4.0	5	10	67	0.00	1024.859	750	0.000	4
20080505 11:20	13.2	13.2	13.2	52	3.6	8	16	45	0.00	1024.859	740	0.000	4
20080505 11:25	13.3	13.3	13.3	54	4.2	6	14	22	0.00	1024.893	756	0.000	5
20080505 11:30	13.4	13.4	13.4	53	4.0	8	19	22	0.00	1024.927	781	0.000	5
20080505 11:35	13.4	13.4	13.4	53	4.1	8	16	67	0.00	1024.893	763	0.000	5
20080505 11:40	13.3	13.3	13.3	52	3.7	8	11	45	0.00	1024.961	767	0.000	5
20080505 11:45	13.5	13.5	13.5	54	4.4	5	10	45	0.00	1024.826	769	0.000	5
20080505 11:50	13.7	13.7	13.7	54	4.6	8	14	45	0.00	1024.893	790	0.000	5
20080505 11:55	13.8	13.8	13.8	50	3.5	6	16	90	0.00	1024.927	795	0.000	5
20080505 12:00	14.0	14.0	14.0	54	4.8	3	13	135	0.00	1024.826	797	0.340	5
20080505 12:05	14.0	14.0	14.0	50	3.7	6	11	67	0.00	1025.097	824	0.000	6
20080505 12:10	13.7	13.7	13.7	48	2.9	6	16	67	0.00	1025.029	483	0.000	5
20080505 12:15	13.8	13.8	13.8	53	4.4	5	8	45	0.00	1025.029	862	0.000	6
20080505 12:20	14.0	14.0	14.0	54	4.8	6	13	45	0.00	1025.029	870	0.000	6
20080505 12:25	14.2	14.2	14.2	51	4.2	6	14	45	0.00	1024.893	898	0.000	6
20080505 12:30	14.2	14.2	14.2	53	4.7	6	14	0	0.00	1024.826	914	0.000	6
20080505 12:35	14.1	14.1	14.1	51	4.1	10	18	22	0.00	1024.826	726	0.000	4
20080505 12:40	14.0	14.0	14.0	49	3.5	6	11	22	0.00	1024.927	557	0.000	5
20080505 12:45	14.1	14.1	14.1	51	4.1	5	10	67	0.00	1024.893	605	0.000	4
20080505 12:50	13.8	13.8	13.8	51	3.8	8	14	45	0.00	1024.893	139	0.000	3
20080505 12:55	13.7	13.7	13.7	53	4.3	5	8	22	0.00	1024.859	880	0.000	6
20080505 13:00	14.3	14.3	14.3	50	4.0	5	18	45	0.00	1024.690	901	0.320	6
20080505 13:05	14.5	14.5	14.5	49	3.9	8	16	22	0.00	1024.826	781	0.000	5
20080505 13:10	14.3	14.3	14.3	47	3.1	6	11	67	0.00	1024.792	366	0.000	4
20080505 13:15	14.2	14.2	14.2	48	3.3	5	10	67	0.00	1024.792	376	0.000	4
20080505 13:20	14.4	14.4	14.4	49	3.9	3	10	112	0.00	1024.792	935	0.000	6
20080505 13:25	14.7	14.7	14.7	46	3.2	8	14	67	0.00	1024.623	625	0.000	5
20080505 13:30	15.0	15.0	15.0	46	3.5	3	8	67	0.00	1024.656	938	0.000	6
20080505 13:35	15.2	15.2	15.2	48	4.2	2	8	135	0.00	1024.589	962	0.000	4
20080505 13:40	15.1	15.1	15.1	46	3.5	8	16	45	0.00	1024.623	768	0.000	5
20080505 13:45	15.0	15.0	15.0	47	3.8	6	16	67	0.00	1024.623	294	0.000	4
20080505 13:50	14.7	14.7	14.7	48	3.8	6	11	67	0.00	1024.623	407	0.000	5
20080505 13:55	14.9	14.9	14.9	47	3.7	6	14	67	0.00	1024.589	884	0.000	6
20080505 14:00	15.0	15.0	15.0	46	3.5	2	6	135	0.00	1024.555	913	0.300	6
20080505 14:05	15.2	15.2	15.2	44	3.0	5	14	135	0.00	1024.589	321	0.000	4
20080505 14:10	15.0	15.0	15.0	44	2.8	6	16	135	0.00	1024.690	360	0.000	4
20080505 14:15	15.0	15.0	15.0	44	2.8	5	11	67	0.00	1024.656	345	0.000	5
20080505 14:20	15.1	15.1	15.1	44	2.9	8	16	112	0.00	1024.656	898	0.000	6
20080505 14:25	15.6	15.6	15.6	45	3.7	5	14	135	0.00	1024.555	944	0.000	6
20080505 14:30	15.9	15.9	15.9	45	4.0	5	11	67	0.00	1024.521	831	0.000	5
20080505 14:35	15.3	15.3	15.3	46	3.8	10	18	67	0.00	1024.589	202	0.000	3
20080505 14:40	14.7	14.7	14.7	45	2.9	10	14	45	0.00	1024.724	149	0.000	3
20080505 14:45	14.7	14.7	14.7	47	3.5	8	16	22	0.00	1024.656	838	0.000	5
20080505 14:50	15.0	15.0	15.0	47	3.8	5	14	22	0.00	1024.623	855	0.000	5
20080505 14:55	15.6	15.6	15.6	46	4.0	6	13	22	0.00	1024.555	898	0.000	5
20080505 15:00	15.6	15.6	15.6	45	3.7	6	11	90	0.00	1024.453	213	0.300	4
20080505 15:05	15.2	15.2	15.2	43	2.7	6	16	67	0.00	1024.589	195	0.000	3
20080505 15:10	15.0	15.0	15.0	44	2.8	3	8	135	0.00	1024.521	301	0.000	4
20080505 15:15	15.3	15.3	15.3	46	3.8	3	10	90	0.00	1024.521	745	0.000	4
20080505 15:20	15.9	15.9	15.9	45	4.0	3	11	112	0.00	1024.453	809	0.000	5
20080505 15:25	16.2	16.2	16.2	44	3.9	5	21	67	0.00	1024.216	820	0.000	4
20080505 15:30	15.8	15.8	15.8	44	3.6	10	19	67	0.00	1024.318	236	0.000	2
20080505 15:35	15.3	15.3	15.3	44	3.1	8	14	45	0.00	1024.453	239	0.000	2
20080505 15:40	14.9	14.9	14.9	45	3.1	6	14	67	0.00	1024.419	152	0.000	2
20080505 15:45	15.0	15.0	15.0	44	2.8	6	10	67	0.00	1024.419	677	0.000	4
20080505 15:50	15.1	15.1	15.1	43	2.6	5	10	45	0.00	1024.318	661	0.000	4
20080505 15:55	15.4	15.4	15.4	43	2.9	5	10	22	0.00	1024.250	651	0.000	4
20080505 16:00	15.7	15.7	15.7	44	3.4	5	11	22	0.00	1024.284	655	0.240	4
20080505 16:05	15.9	15.9	15.9	43	3.3	6	14	67	0.00	1024.284	648	0.000	3
20080505 16:10	15.9	15.9	15.9	43	3.4	5	10	45	0.00	1024.115	657	0.000	3
20080505 16:15	16.1	16.1	16.1	46	4.5	6	13	22	0.00	1024.182	696	0.000	3
20080505 16:20	16.3	16.3	16.3	45	4.4	6	11	67	0.00	1024.081	630	0.000	3
20080505 16:25	16.2	16.2	16.2	45	4.3	10	16	45	0.00	1024.115	613	0.000	3
20080505 16:30	15.9	15.9	15.9	44	3.6	8	14	45	0.00	1024.115	608	0.000	3
20080505 16:35	15.9	15.9	15.9	45	4.0	6	11	67	0.00	1024.081	554	0.000	3
20080505 16:40	16.1	16.1	16.1	44	3.8	5	11	45	0.00	1024.013	547	0.000	3
20080505 16:45	16.2	16.2	16.2	44	4.0	6	11	90	0.00	1024.047	534	0.000	2
20080505 16:50	16.3	16.3	16.3	42	3.3	6	10	67	0.00	1023.979	524	0.000	2
20080505 16:55	16.4	16.4	16.4	41	3.1	5	10	90	0.00	1023.878	512	0.000	2
20080505 17:00	16.3	16.3	16.3	41	3.0	5	14	67	0.00	1023.945	476	0.280	2
20080505 17:05	16.4	16.4	16.4	42	3.4	8	16	112	0.00	1023.878	477	0.000	2
20080505 17:10	16.4	16.4	16.4	43	3.8	5	10	45	0.00	1023.844	480	0.000	2
20080505 17:15	16.4	16.4	16.4	43	3.8	3	8	135	0.00	1023.776	481	0.000	2
20080505 17:20	16.4	16.4	16.4	43	3.8	6	11	45	0.00	1023.878	485	0.000	2
20080505 17:25	16.4	16.4	16.4	44	4.2	3	8	67	0.00	1023.810	464	0.000	1
20080505 17:30	16.4	16.4	16.4	44	4.2	6	11	90	0.00	1023.776	359	0.000	1
20080505 17:35	16.0	16.0	16.0	43	3.4	6	11	90	0.00	1023.844	160	0.000	1
20080505 17:40	15.7	15.7	15.7	44	3.5	5	10	135	0.00	1023.878	302	0.000	1
20080505 17:45	15.9	15.9	15.9	42	3.0	5	10	67	0.00	1023.708	389	0.000	1
20080505 17:50	16.1	16.1	16.1	42	3.2	5	14	112	0.00	1023.708	368	0.000	1
20080505 17:55	16.2	16.2	16.2	43	3.6	5	10	90	0.00	1023.640	367	0.000	1
20080505 18:00	16.2	16.2	16.2	43	3.6	5	8	67	0.00	1023.674	341	0.200	1
20080505 18:05	16.2	16.2	16.2	44	3.9	5	10	67	0.00	1023.640	324	0.000	1
20080505 18:10	16.2	16.2	16.2	45	4.3	8	16	67	0.00	1023.640	294	0.000	1
20080505 18:15	16.1	16.1	16.1	45	4.1	8	14	67	0.00	1023.640	288	0.000	1
20080505 18:20	16.1	16.1	16.1	46	4.4	6	11	45	0.00	1023.573	282	0.000	1
20080505 18:25	16.0	16.0	16.0	44	3.7	8	14	67	0.00	1023.573	272	0.000	1
20080505 18:30	15.9	15.9	15.9	44	3.6	8	14	67	0.00	1023.539	258	0.000	1
20080505 18:35	15.8	15.8	15.8	44	3.6	6	11	67	0.00	1023.505	249	0.000	1
20080505 18:40	15.8	15.8	15.8	45	3.9	5	8	45	0.00	1023.607	238	0.000	0
20080505 18:45	15.8	15.8	15.8	44	3.5	5	10	45	0.00	1023.640	219	0.000	0
20080505 18:50	15.8	15.8	15.8	45	3.9	3	10	90	0.00	1023.505	126	0.000	0
20080505 18:55	15.6	15.6	15.6	46	4.0	3	10	45	0.00	1023.437	64	0.000	0
20080505 19:00	15.6	15.6	15.6	46	4.0	5	10	67	0.00	1023.437	115	0.140	0
20080505 19:05	15.4	15.4	15.4	47	4.2	5	10	45	0.00	1023.268	50	0.000	0
20080505 19:10	15.2	15.2	15.2	48	4.3	6	11	67	0.00	1023.268	49	0.000	0
20080505 19:15	15.0	15.0	15.0	48	4.1	6	16	67	0.00	1023.336	47	0.000	0
20080505 19:20	15.0	15.0	15.0	49	4.4	3	8	90	0.00	1023.370	47	0.000	0
20080505 19:25	15.0	15.0	15.0	49	4.4	3	8	67	0.00	1023.370	46	0.000	0
20080505 19:30	14.9	14.9	14.9	50	4.6	2	5	90	0.00	1023.403	44	0.000	0
20080505 19:35	14.8	14.8	14.8	51	4.8	3	6	90	0.00	1023.505	42	0.000	0
20080505 19:40	14.7	14.7	14.7	51	4.7	2	6	90	0.00	1023.505	37	0.000	0
20080505 19:45	14.7	14.7	14.7	51	4.6	2	5	112	0.00	1023.607	33	0.000	0
20080505 19:50	14.6	14.6	14.6	50	4.2	3	10	90	0.00	1023.640	30	0.000	0
20080505 19:55	14.4	14.4	14.4	51	4.4	2	6	90	0.00	1023.640	27	0.000	0
20080505 20:00	14.3	14.3	14.3	52	4.6	2	3	90	0.00	1023.708	24	0.040	0
20080505 20:05	14.3	14.3	14.3	53	4.8	2	5	112	0.00	1023.336	21	0.000	0
20080505 20:10	14.1	14.1	14.1	53	4.7	2	6	112	0.00	1023.370	18	0.000	0
20080505 20:15	13.9	13.9	13.9	54	4.8	0	3	135	0.00	1023.437	14	0.000	0
20080505 20:20	13.8	13.8	13.8	54	4.6	0	3	135	0.00	1023.403	10	0.000	0
20080505 20:25	13.6	13.6	13.6	55	4.7	2	5	135	0.00	1023.505	7	0.000	0
20080505 20:30	13.5	13.5	13.5	56	4.9	2	3	135	0.00	1023.674	3	0.000	0
20080505 20:35	13.3	13.3	13.3	57	5.0	2	5	67	0.00	1023.674	0	0.000	0
20080505 20:40	13.2	13.2	13.2	58	5.1	2	3	67	0.00	1023.776	0	0.000	0
20080505 20:45	13.0	13.0	13.0	59	5.2	0	3	90	0.00	1023.810	0	0.000	0
20080505 20:50	12.8	12.8	12.8	59	5.0	0	3	90	0.00	1023.810	0	0.000	0
20080505 20:55	12.7	12.7	12.7	59	4.9	2	5	90	0.00	1023.844	0	0.000	0
20080505 21:00	12.6	12.6	12.6	59	4.8	0	3	112	0.00	1023.844	0	0.020	0
20080505 21:05	12.4	12.4	12.4	60	4.9	0	3	112	0.00	1023.844	0	0.000	0
20080505 21:10	12.3	12.3	12.3	61	5.0	0	2	112	0.00	1024.047	0	0.000	0
20080505 21:15	12.1	12.1	12.1	62	5.0	0	2	112	0.00	1024.047	0	0.000	0
20080505 21:20	12.0	12.0	12.0	61	4.7	0	2	112	0.00	1024.081	0	0.000	0
20080505 21:25	11.8	11.8	11.8	61	4.6	0	2	112	0.00	1024.047	0	0.000	0
20080505 21:30	11.7	11.7	11.7	62	4.7	0	0	112	0.00	1024.115	0	0.000	0
20080505 21:35	11.6	11.6	11.6	63	4.8	0	3	112	0.00	1024.081	0	0.000	0
20080505 21:40	11.4	11.4	11.4	63	4.6	2	5	112	0.00	1024.047	0	0.000	0
20080505 21:45	11.3	11.3	11.3	64	4.7	2	3	112	0.00	1024.250	0	0.000	0
20080505 21:50	11.2	11.2	11.2	65	4.8	2	3	112	0.00	1024.250	0	0.000	0
20080505 21:55	11.0	11.0	11.0	65	4.7	2	3	112	0.00	1024.284	0	0.000	0
20080505 22:00	10.9	10.9	10.9	65	4.6	0	2	112	0.00	1024.284	0	0.020	0
20080505 22:05	10.8	10.8	10.8	66	4.7	0	3	112	0.00	1024.284	0	0.000	0
20080505 22:10	10.7	10.7	10.7	67	4.8	0	2	112	0.00	1024.250	0	0.000	0
20080505 22:15	10.6	10.6	10.6	68	4.9	0	2	112	0.00	1024.284	0	0.000	0
20080505 22:20	10.4	10.4	10.4	68	4.8	0	2	112	0.00	1024.284	0	0.000	0
20080505 22:25	10.3	10.3	10.3	68	4.7	0	5	112	0.00	1024.284	0	0.000	0
20080505 22:30	10.3	10.3	10.3	69	4.8	0	2	112	0.00	1024.284	0	0.000	0
20080505 22:35	10.3	10.3	10.3	69	4.9	0	5	135	0.00	1024.216	0	0.000	0
20080505 22:40	10.4	10.4	10.4	69	4.9	0	2	135	0.00	1024.216	0	0.000	0
20080505 22:45	10.3	10.3	10.3	70	5.1	0	2	135	0.00	1024.250	0	0.000	0
20080505 22:50	10.3	10.3	10.3	70	5.0	0	3	135	0.00	1024.182	0	0.000	0
20080505 22:55	10.2	10.2	10.2	70	4.9	0	3	135	0.00	1024.419	0	0.000	0
20080505 23:00	10.2	10.2	10.2	70	4.9	0	2	135	0.00	1024.419	0	0.020	0
20080505 23:05	10.1	10.1	10.1	70	4.9	0	2	135	0.00	1024.250	0	0.000	0
20080505 23:10	10.0	10.0	10.0	71	5.0	0	2	135	0.00	1024.216	0	0.000	0
20080505 23:15	9.9	9.9	9.9	71	4.9	0	2	135	0.00	1024.216	0	0.000	0
20080505 23:20	9.8	9.8	9.8	71	4.8	0	3	135	0.00	1024.250	0	0.000	0
20080505 23:25	9.7	9.7	9.7	71	4.7	0	2	135	0.00	1024.284	0	0.000	0
20080505 23:30	9.6	9.6	9.6	71	4.6	0	2	135	0.00	1024.318	0	0.000	0
20080505 23:35	9.4	9.4	9.4	72	4.7	0	0	135	0.00	1024.352	0	0.000	0
20080505 23:40	9.3	9.3	9.3	73	4.7	0	0	135	0.00	1024.352	0	0.000	0
20080505 23:45	9.2	9.2	9.2	73	4.6	0	0	135	0.00	1024.318	0	0.000	0
20080505 23:50	9.0	9.0	9.0	73	4.4	0	2	135	0.00	1024.487	0	0.000	0
20080505 23:55	8.8	8.8	8.8	74	4.5	0	2	135	0.00	1024.487	0	0.000	0
20080505 24:00	8.7	8.7	8.7	75	4.5	0	0	135	0.00	1024.487	0	0.020	0



Please note the license to use and transfer of this data:
http://creativecommons.org/licenses/by-nc-sa/3.0/deed.en

Bitte beachten sie die Lizenz zur Verwertung und Weitergabe der Daten:
http://creativecommons.org/licenses/by-nc-sa/3.0/deed.de

zurück zur Übersicht der Archivdaten (Monats und Tagesdaten)

Cookies helfen bei der Bereitstellung von Inhalten. Durch die Nutzung dieser Seiten erklärst du dich damit einverstanden, dass Cookies auf deinem Rechner gespeichert werden. Weitere Information